createdAt,value
2023-05-06T00:02:23.264Z,53.24
2023-05-06T00:07:25.202Z,53.52
2023-05-06T00:12:27.404Z,54.09
2023-05-06T00:17:29.316Z,54.52
2023-05-06T00:22:31.182Z,54.76
2023-05-06T00:27:33.507Z,54.73
2023-05-06T00:32:35.878Z,55.15
2023-05-06T00:37:37.637Z,55.27
2023-05-06T00:42:39.360Z,55.50
2023-05-06T00:47:43.273Z,55.53
2023-05-06T00:52:46.437Z,55.85
2023-05-06T00:57:51.934Z,56.41
2023-05-06T01:02:56.940Z,57.11
2023-05-06T01:08:17.874Z,57.30
2023-05-06T01:13:39.818Z,57.47
2023-05-06T01:18:44.487Z,57.68
2023-05-06T01:23:55.392Z,58.22
2023-05-06T01:28:58.399Z,57.95
2023-05-06T01:34:06.525Z,58.11
2023-05-06T01:39:14.273Z,58.13
2023-05-06T01:44:21.748Z,58.36
2023-05-06T01:49:26.244Z,58.87
2023-05-06T01:54:28.078Z,58.80
2023-05-06T01:59:29.967Z,59.23
2023-05-06T02:04:32.454Z,59.51
2023-05-06T02:09:34.790Z,59.72
2023-05-06T02:14:38.390Z,59.70
2023-05-06T02:19:41.255Z,60.25
2023-05-06T02:24:43.110Z,60.43
2023-05-06T02:29:45.136Z,60.43
2023-05-06T02:34:47.021Z,60.68
2023-05-06T02:39:48.878Z,60.82
2023-05-06T02:44:50.746Z,60.95
2023-05-06T02:49:52.640Z,61.04
2023-05-06T02:54:54.598Z,61.21
2023-05-06T02:59:56.529Z,61.34
2023-05-06T03:04:58.380Z,61.62
2023-05-06T03:10:00.933Z,61.76
2023-05-06T03:15:06.362Z,61.64
2023-05-06T03:20:08.906Z,62.17
2023-05-06T03:25:13.724Z,62.34
2023-05-06T03:30:17.352Z,62.60
2023-05-06T03:35:23.412Z,62.84
2023-05-06T03:40:29.928Z,62.67
2023-05-06T03:45:32.710Z,62.84
2023-05-06T03:50:37.916Z,62.97
2023-05-06T03:55:40.076Z,63.00
2023-05-06T04:00:42.365Z,63.05
2023-05-06T04:05:46.005Z,63.42
2023-05-06T04:10:51.508Z,63.59
2023-05-06T04:16:05.804Z,63.65
2023-05-06T04:21:13.092Z,63.86
2023-05-06T04:26:17.475Z,63.64
2023-05-06T04:31:21.346Z,64.17
2023-05-06T04:36:25.604Z,64.39
2023-05-06T04:41:46.747Z,64.38
2023-05-06T04:46:53.133Z,64.73
2023-05-06T04:51:55.219Z,64.83
2023-05-06T04:56:57.204Z,65.22
2023-05-06T05:01:59.524Z,65.51
2023-05-06T05:07:01.613Z,65.34
2023-05-06T05:12:06.002Z,66.04
2023-05-06T05:17:11.789Z,66.17
2023-05-06T05:22:14.742Z,66.36
2023-05-06T05:27:16.949Z,66.37
2023-05-06T05:32:20.393Z,66.68
2023-05-06T05:37:22.361Z,66.77
2023-05-06T05:42:24.168Z,67.06
2023-05-06T05:47:27.215Z,67.57
2023-05-06T05:52:30.251Z,67.50
2023-05-06T05:57:32.418Z,67.92
2023-05-06T06:02:34.881Z,68.39
2023-05-06T06:07:36.878Z,68.49
2023-05-06T06:12:38.927Z,68.66
2023-05-06T06:17:41.742Z,69.03
2023-05-06T06:22:44.440Z,69.17
2023-05-06T06:27:46.394Z,69.40
2023-05-06T06:32:53.569Z,69.39
2023-05-06T06:37:55.709Z,69.50
2023-05-06T06:42:57.533Z,69.95
2023-05-06T06:48:22.824Z,69.69
2023-05-06T06:53:33.783Z,70.12
2023-05-06T06:58:35.720Z,70.28
2023-05-06T07:03:37.557Z,70.48
2023-05-06T07:08:39.575Z,71.18
2023-05-06T07:13:41.528Z,71.33
2023-05-06T07:18:43.446Z,71.66
2023-05-06T07:23:45.387Z,71.57
2023-05-06T07:28:47.187Z,71.67
2023-05-06T07:33:49.019Z,71.80
2023-05-06T07:38:51.222Z,71.90
2023-05-06T07:43:53.658Z,72.08
2023-05-06T07:48:55.526Z,72.18
2023-05-06T07:53:57.647Z,72.16
2023-05-06T07:59:00.150Z,72.20
2023-05-06T08:04:02.046Z,72.09
2023-05-06T08:09:04.100Z,71.72
2023-05-06T08:14:05.911Z,71.69
2023-05-06T08:19:07.788Z,71.84
2023-05-06T08:24:11.059Z,71.82
2023-05-06T08:29:13.631Z,71.49
2023-05-06T08:34:18.605Z,71.59
2023-05-06T08:39:20.644Z,71.41
2023-05-06T08:44:24.852Z,71.04
2023-05-06T08:49:27.143Z,71.05
2023-05-06T08:54:29.562Z,70.90
2023-05-06T08:59:33.007Z,70.77
2023-05-06T09:04:35.521Z,70.74
2023-05-06T09:09:37.516Z,70.54
2023-05-06T09:14:40.088Z,70.34
2023-05-06T09:19:42.365Z,70.04
2023-05-06T09:24:44.276Z,70.18
2023-05-06T09:30:05.407Z,70.39
2023-05-06T09:35:08.963Z,70.18
2023-05-06T09:40:11.963Z,69.91
2023-05-06T09:45:16.004Z,70.06
2023-05-06T09:50:18.122Z,69.71
2023-05-06T09:55:21.467Z,69.49
2023-05-06T10:00:28.368Z,69.60
2023-05-06T10:05:32.521Z,69.20
2023-05-06T10:10:35.198Z,69.14
2023-05-06T10:15:38.728Z,69.22
2023-05-06T10:20:43.024Z,69.08
2023-05-06T10:25:46.920Z,68.81
2023-05-06T10:30:51.148Z,68.95
2023-05-06T10:36:24.048Z,68.72
2023-05-06T10:41:28.236Z,68.53
2023-05-06T10:46:30.841Z,68.76
2023-05-06T10:51:34.071Z,68.42
2023-05-06T10:56:37.121Z,68.67
2023-05-06T11:01:44.063Z,68.26
2023-05-06T11:06:48.556Z,68.32
2023-05-06T11:11:52.216Z,68.23
2023-05-06T11:16:55.145Z,68.09
2023-05-06T11:22:02.353Z,67.85
2023-05-06T11:27:06.094Z,67.78
2023-05-06T11:32:23.482Z,67.55
2023-05-06T11:37:29.952Z,67.47
2023-05-06T11:42:32.029Z,67.12
2023-05-06T11:47:33.960Z,67.05
2023-05-06T11:52:35.942Z,66.63
2023-05-06T11:57:44.932Z,66.12
2023-05-06T12:02:47.337Z,66.03
2023-05-06T12:07:49.756Z,65.97
2023-05-06T12:12:51.990Z,65.60
2023-05-06T12:17:54.160Z,65.39
2023-05-06T12:23:07.041Z,64.69
2023-05-06T12:28:19.371Z,64.50
2023-05-06T12:33:21.480Z,63.85
2023-05-06T12:38:23.391Z,63.81
2023-05-06T12:43:30.774Z,63.52
2023-05-06T12:48:32.763Z,63.96
2023-05-06T12:53:35.691Z,64.28
2023-05-06T12:58:38.728Z,64.40
2023-05-06T13:03:41.365Z,64.11
2023-05-06T13:08:43.954Z,64.27
2023-05-06T13:13:45.975Z,64.23
2023-05-06T13:18:47.810Z,64.41
2023-05-06T13:23:49.826Z,64.00
2023-05-06T13:28:54.764Z,64.11
2023-05-06T13:33:56.814Z,63.72
2023-05-06T13:38:58.644Z,63.36
2023-05-06T13:44:00.638Z,64.09
2023-05-06T13:49:02.666Z,63.90
2023-05-06T13:54:04.668Z,64.54
2023-05-06T13:59:08.300Z,64.38
2023-05-06T14:04:10.966Z,64.17
2023-05-06T14:09:13.101Z,64.21
2023-05-06T14:14:15.699Z,63.90
2023-05-06T14:19:17.547Z,63.93
2023-05-06T14:24:19.499Z,63.81
2023-05-06T14:29:21.421Z,64.38
2023-05-06T14:34:23.374Z,64.58
2023-05-06T14:39:25.420Z,64.69
2023-05-06T14:44:27.605Z,64.68
2023-05-06T14:49:29.493Z,64.67
2023-05-06T14:54:31.372Z,64.85
2023-05-06T14:59:33.359Z,64.65
2023-05-06T15:04:35.680Z,64.46
2023-05-06T15:09:39.684Z,64.61
2023-05-06T15:14:42.114Z,64.72
2023-05-06T15:19:44.122Z,64.59
2023-05-06T15:24:45.968Z,64.81
2023-05-06T15:29:47.819Z,64.70
2023-05-06T15:34:49.822Z,64.88
2023-05-06T15:39:51.695Z,64.83
2023-05-06T15:44:55.097Z,64.90
2023-05-06T15:49:57.119Z,65.22
2023-05-06T15:55:00.027Z,64.69
2023-05-06T16:00:02.655Z,64.71
2023-05-06T16:05:09.749Z,64.89
2023-05-06T16:10:11.939Z,64.68
2023-05-06T16:15:14.078Z,64.57
2023-05-06T16:20:16.348Z,64.34
2023-05-06T16:25:18.273Z,63.85
2023-05-06T16:30:20.383Z,64.27
2023-05-06T16:35:22.430Z,64.17
2023-05-06T16:40:24.418Z,64.37
2023-05-06T16:45:26.316Z,64.03
2023-05-06T16:50:28.308Z,64.20
2023-05-06T16:55:30.137Z,63.94
2023-05-06T17:00:32.196Z,63.84
2023-05-06T17:05:34.405Z,63.90
2023-05-06T17:10:36.840Z,64.05
2023-05-06T17:15:38.701Z,63.93
2023-05-06T17:20:54.215Z,63.97
2023-05-06T17:25:57.468Z,63.95
2023-05-06T17:30:59.322Z,63.80
2023-05-06T17:36:01.366Z,63.87
2023-05-06T17:41:03.325Z,63.87
2023-05-06T17:46:06.959Z,63.87
2023-05-06T17:51:08.970Z,63.87
2023-05-06T17:56:11.132Z,63.67
2023-05-06T18:01:13.485Z,63.78
2023-05-06T18:06:15.741Z,63.83
2023-05-06T18:11:17.736Z,63.85
2023-05-06T18:16:20.249Z,63.66
2023-05-06T18:21:22.468Z,63.59
2023-05-06T18:26:42.748Z,63.82
2023-05-06T18:31:46.691Z,63.77
2023-05-06T18:36:49.785Z,63.69
2023-05-06T18:41:51.615Z,63.89
2023-05-06T18:46:53.403Z,64.05
2023-05-06T18:51:56.358Z,64.30
2023-05-06T18:56:58.775Z,64.68
2023-05-06T19:02:01.945Z,64.52
2023-05-06T19:07:05.178Z,64.59
2023-05-06T19:12:07.082Z,64.37
2023-05-06T19:17:08.956Z,64.46
2023-05-06T19:22:11.249Z,64.38
2023-05-06T19:27:13.076Z,64.17
2023-05-06T19:32:14.779Z,64.33
2023-05-06T19:37:16.565Z,64.45
2023-05-06T19:42:21.275Z,64.48
2023-05-06T19:47:23.402Z,64.63
2023-05-06T19:52:30.645Z,64.80
2023-05-06T19:57:33.975Z,64.62
2023-05-06T20:02:38.855Z,64.76
2023-05-06T20:07:41.587Z,64.75
2023-05-06T20:12:43.632Z,64.80
2023-05-06T20:17:45.568Z,64.72
2023-05-06T20:22:47.684Z,65.13
2023-05-06T20:27:49.539Z,65.07
2023-05-06T20:32:52.106Z,64.75
2023-05-06T20:37:54.703Z,64.58
2023-05-06T20:42:56.621Z,64.66
2023-05-06T20:47:58.811Z,64.41
2023-05-06T20:53:01.664Z,64.51
2023-05-06T20:58:04.203Z,64.63
2023-05-06T21:03:06.172Z,64.51
2023-05-06T21:08:08.843Z,64.63
2023-05-06T21:13:10.722Z,64.34
2023-05-06T21:18:13.758Z,64.47
2023-05-06T21:23:16.293Z,64.63
2023-05-06T21:28:18.126Z,64.57
2023-05-06T21:33:19.966Z,64.76
2023-05-06T21:38:21.852Z,64.96
2023-05-06T21:43:23.684Z,65.15
2023-05-06T21:48:25.500Z,65.28
2023-05-06T21:53:27.295Z,65.29
2023-05-06T21:58:29.071Z,65.58
2023-05-06T22:03:31.088Z,65.68
2023-05-06T22:08:33.209Z,65.76
2023-05-06T22:13:35.249Z,65.87
2023-05-06T22:18:41.661Z,65.68
2023-05-06T22:23:43.562Z,65.63
2023-05-06T22:28:46.068Z,65.97
2023-05-06T22:33:49.620Z,66.22
2023-05-06T22:38:51.425Z,66.39
2023-05-06T22:43:53.677Z,66.58
2023-05-06T22:48:55.484Z,66.53
2023-05-06T22:53:57.315Z,66.76
2023-05-06T22:58:59.179Z,66.84
2023-05-06T23:04:01.072Z,66.94
2023-05-06T23:09:02.981Z,67.00
2023-05-06T23:14:05.029Z,66.83
2023-05-06T23:19:06.780Z,67.15
2023-05-06T23:24:09.120Z,67.48
2023-05-06T23:29:10.880Z,67.66
2023-05-06T23:34:12.644Z,67.81
2023-05-06T23:39:17.704Z,67.70
2023-05-06T23:44:19.542Z,67.82
2023-05-06T23:49:21.481Z,67.70
2023-05-06T23:54:23.368Z,67.46
2023-05-06T23:59:25.292Z,67.42
